Time;durP1;ratioP1;P1;durP2;ratioP2;P2;SDS_P1;SDS_P2;PMS_P1;PMS_P2;Temp;Humidity;BMP_temperature;BMP_pressure;BME280_temperature;BME280_humidity;BME280_pressure;Samples;Min_cycle;Max_cycle;Signal;HPM_P1;HPM_P2
2021/09/03 00:00:08;;;;;;;3.90;2.40;;;19.70;61.20;;;;;;2589596;52;20902;-71
2021/09/03 00:02:38;;;;;;;5.07;2.97;;;19.70;61.40;;;;;;2366841;53;20989;-70
2021/09/03 00:05:16;;;;;;;4.70;2.30;;;19.60;61.40;;;;;;2477950;52;20989;-71
2021/09/03 00:07:42;;;;;;;4.68;2.40;;;19.60;61.30;;;;;;2355102;53;21026;-70
2021/09/03 00:10:09;;;;;;;5.60;2.40;;;19.60;61.50;;;;;;2611425;52;21029;-71
2021/09/03 00:12:36;;;;;;;4.78;2.70;;;19.50;61.50;;;;;;2366842;53;20943;-70
2021/09/03 00:15:04;;;;;;;5.50;2.40;;;19.50;61.70;;;;;;2371450;52;21002;-72
2021/09/03 00:17:31;;;;;;;4.40;2.53;;;19.40;61.80;;;;;;2371272;52;20985;-70
2021/09/03 00:19:57;;;;;;;4.82;2.53;;;19.30;61.80;;;;;;2617735;52;20960;-70
2021/09/03 00:22:24;;;;;;;4.97;2.47;;;19.30;61.80;;;;;;2370797;53;20990;-72
2021/09/03 00:24:51;;;;;;;3.65;2.30;;;19.30;61.90;;;;;;2367021;52;21033;-68
2021/09/03 00:27:17;;;;;;;4.05;2.37;;;19.20;61.90;;;;;;2366968;53;20925;-68
2021/09/03 00:29:43;;;;;;;4.37;2.17;;;19.20;62.00;;;;;;2619167;52;20986;-70
2021/09/03 00:32:10;;;;;;;7.57;2.80;;;19.10;62.00;;;;;;2370499;52;20951;-70
2021/09/03 00:34:36;;;;;;;5.95;3.10;;;19.10;62.10;;;;;;2618548;52;21025;-72
2021/09/03 00:37:03;;;;;;;4.70;2.72;;;19.10;62.20;;;;;;2370174;52;21844;-71
2021/09/03 00:39:29;;;;;;;5.87;3.00;;;19.00;62.10;;;;;;2483433;52;20980;-69
2021/09/03 00:41:56;;;;;;;7.35;2.70;;;18.90;62.00;;;;;;2618549;52;20986;-72
2021/09/03 00:44:22;;;;;;;4.07;2.20;;;18.90;62.10;;;;;;2593816;52;20957;-68
2021/09/03 00:46:49;;;;;;;4.95;2.62;;;18.90;62.30;;;;;;2362019;53;20938;-69
2021/09/03 00:49:15;;;;;;;4.55;2.55;;;18.80;62.20;;;;;;2408615;52;21423;-71
2021/09/03 00:51:42;;;;;;;4.05;2.40;;;18.80;62.30;;;;;;2370263;52;21418;-68
2021/09/03 00:54:08;;;;;;;4.65;2.90;;;18.70;62.20;;;;;;2619361;52;21429;-70
2021/09/03 00:56:35;;;;;;;4.35;2.53;;;18.70;62.30;;;;;;2366002;53;21324;-70
2021/09/03 00:59:01;;;;;;;4.82;2.80;;;18.60;62.40;;;;;;2426340;52;20953;-69
2021/09/03 01:01:27;;;;;;;4.28;2.30;;;18.60;62.40;;;;;;2617524;52;20937;-70
2021/09/03 01:03:57;;;;;;;3.85;2.15;;;18.50;62.40;;;;;;2370545;53;20927;-69
2021/09/03 01:06:24;;;;;;;4.75;2.50;;;18.50;62.50;;;;;;2366854;52;20910;-70
2021/09/03 01:08:50;;;;;;;4.50;2.72;;;18.40;62.50;;;;;;2618532;52;20986;-70
2021/09/03 01:11:17;;;;;;;5.65;2.83;;;18.30;62.50;;;;;;2371161;53;21470;-69
2021/09/03 01:13:43;;;;;;;5.12;2.62;;;18.30;62.70;;;;;;2366458;53;20937;-67
2021/09/03 01:16:10;;;;;;;5.07;2.20;;;18.20;62.70;;;;;;2618567;52;21647;-69
2021/09/03 01:18:36;;;;;;;4.20;2.50;;;18.20;62.80;;;;;;2370498;53;21016;-68
2021/09/03 01:21:02;;;;;;;4.22;2.17;;;18.10;62.80;;;;;;2366592;53;20909;-68
2021/09/03 01:23:28;;;;;;;4.72;2.65;;;18.10;62.80;;;;;;2366584;53;20918;-70
2021/09/03 01:25:55;;;;;;;4.75;2.67;;;18.10;63.00;;;;;;2366908;53;21379;-71
2021/09/03 01:28:21;;;;;;;5.25;2.40;;;18.00;63.00;;;;;;2371710;52;20955;-70
2021/09/03 01:30:49;;;;;;;4.35;2.25;;;18.00;63.10;;;;;;2366721;53;20953;-72
2021/09/03 01:33:18;;;;;;;4.90;2.35;;;17.90;63.00;;;;;;2367345;53;21517;-69
2021/09/03 01:35:45;;;;;;;4.50;2.75;;;17.90;63.00;;;;;;2618376;52;20945;-72
2021/09/03 01:38:14;;;;;;;5.30;2.80;;;17.90;63.10;;;;;;2370711;52;20915;-69
2021/09/03 01:40:40;;;;;;;4.28;2.45;;;17.80;63.10;;;;;;2366726;53;20938;-67
2021/09/03 01:43:06;;;;;;;5.45;2.67;;;17.80;63.10;;;;;;2371529;52;20963;-70
2021/09/03 01:45:33;;;;;;;5.28;2.47;;;17.80;63.10;;;;;;2450259;52;21064;-70
2021/09/03 01:47:59;;;;;;;4.70;2.72;;;17.70;63.00;;;;;;2367205;53;21791;-70
2021/09/03 01:50:34;;;;;;;4.10;2.22;;;17.70;63.10;;;;;;2347068;53;20969;-69
2021/09/03 01:53:01;;;;;;;4.37;2.62;;;17.60;62.90;;;;;;2347385;53;20998;-67
2021/09/03 01:55:27;;;;;;;3.70;2.33;;;17.60;63.20;;;;;;2367168;53;21008;-69
2021/09/03 01:57:53;;;;;;;4.50;2.20;;;17.50;63.20;;;;;;2371587;52;21018;-67
2021/09/03 02:00:20;;;;;;;3.67;2.22;;;17.50;63.30;;;;;;2366726;53;20985;-71
2021/09/03 02:02:46;;;;;;;4.45;2.80;;;17.50;63.40;;;;;;2367191;53;21017;-70
2021/09/03 02:05:12;;;;;;;3.55;1.90;;;17.40;63.40;;;;;;2367227;53;21020;-71
2021/09/03 02:07:39;;;;;;;4.28;2.40;;;17.40;63.60;;;;;;2367958;52;21004;-67
2021/09/03 02:10:06;;;;;;;3.90;2.25;;;17.40;63.60;;;;;;2367009;53;20988;-70
2021/09/03 02:12:32;;;;;;;4.62;2.60;;;17.30;63.70;;;;;;2366919;53;20977;-67
2021/09/03 02:14:58;;;;;;;4.85;2.60;;;17.30;63.70;;;;;;2371219;53;21014;-70
2021/09/03 02:17:25;;;;;;;4.57;2.67;;;17.30;63.70;;;;;;2403526;52;21465;-71
2021/09/03 02:19:54;;;;;;;4.00;2.12;;;17.20;63.70;;;;;;2367184;52;21005;-68
2021/09/03 02:22:21;;;;;;;4.10;2.17;;;17.20;63.80;;;;;;2370971;53;21054;-67
2021/09/03 02:24:47;;;;;;;3.78;1.92;;;17.20;63.80;;;;;;2366912;53;20962;-69
2021/09/03 02:27:13;;;;;;;5.47;2.50;;;17.10;63.80;;;;;;2371307;52;21491;-70
2021/09/03 02:29:40;;;;;;;5.87;2.58;;;17.10;64.00;;;;;;2399348;52;21952;-69
2021/09/03 02:32:07;;;;;;;4.45;2.37;;;17.10;64.10;;;;;;2367115;53;21390;-69
2021/09/03 02:34:33;;;;;;;4.50;2.40;;;17.00;64.10;;;;;;2619228;52;21887;-69
2021/09/03 02:37:00;;;;;;;4.55;2.60;;;17.00;64.20;;;;;;2347412;53;20950;-68
2021/09/03 02:39:26;;;;;;;3.85;2.17;;;17.00;64.20;;;;;;2568431;52;20935;-68
2021/09/03 02:41:52;;;;;;;4.93;2.67;;;17.00;64.30;;;;;;2367375;53;20941;-68
2021/09/03 02:44:37;;;;;;;4.87;2.87;;;17.00;64.30;;;;;;2618301;52;20941;-70
2021/09/03 02:47:04;;;;;;;4.47;2.70;;;17.00;64.30;;;;;;2346872;53;21811;-70
2021/09/03 02:49:35;;;;;;;5.87;2.95;;;16.90;64.50;;;;;;2416491;52;21012;-71
2021/09/03 02:52:02;;;;;;;4.90;2.42;;;16.90;64.50;;;;;;2366443;52;20993;-69
2021/09/03 02:54:28;;;;;;;4.50;2.50;;;16.90;64.40;;;;;;2477417;52;21722;-70
2021/09/03 02:56:55;;;;;;;4.85;2.53;;;16.90;64.50;;;;;;2595267;52;20997;-69
2021/09/03 02:59:21;;;;;;;4.90;2.42;;;16.80;64.30;;;;;;2619408;52;20989;-70
2021/09/03 03:01:49;;;;;;;4.25;2.62;;;16.80;64.30;;;;;;2366581;53;21077;-69
2021/09/03 03:04:16;;;;;;;4.43;2.35;;;16.80;64.30;;;;;;2618669;52;21022;-68
2021/09/03 03:06:43;;;;;;;3.70;2.10;;;16.80;64.40;;;;;;2367066;53;20964;-69
2021/09/03 03:09:09;;;;;;;3.65;2.17;;;16.80;64.40;;;;;;2516501;52;20943;-69
2021/09/03 03:11:35;;;;;;;4.50;2.50;;;16.70;64.40;;;;;;2580029;52;20973;-70
2021/09/03 03:14:04;;;;;;;4.35;2.58;;;16.70;64.40;;;;;;2366998;53;20981;-71
2021/09/03 03:16:31;;;;;;;4.43;2.30;;;16.70;64.50;;;;;;2375764;52;20938;-71
2021/09/03 03:18:57;;;;;;;4.43;2.70;;;16.60;64.40;;;;;;2473384;52;20945;-70
2021/09/03 03:21:23;;;;;;;4.37;2.78;;;16.60;64.50;;;;;;2371444;52;20959;-71
2021/09/03 03:23:50;;;;;;;4.10;2.28;;;16.60;64.60;;;;;;2500010;52;21422;-70
2021/09/03 03:26:16;;;;;;;4.40;2.70;;;16.60;64.60;;;;;;2371124;53;20938;-69
2021/09/03 03:28:43;;;;;;;4.93;2.92;;;16.60;64.70;;;;;;2424138;52;20965;-67
2021/09/03 03:31:10;;;;;;;3.67;2.15;;;16.50;65.40;;;;;;2366749;53;20929;-70
2021/09/03 03:33:37;;;;;;;4.93;2.60;;;16.50;64.60;;;;;;2371414;52;20990;-70
2021/09/03 03:36:04;;;;;;;4.82;2.58;;;16.50;64.50;;;;;;2349350;53;20937;-67
2021/09/03 03:38:31;;;;;;;4.57;2.58;;;16.40;64.30;;;;;;2596853;52;21965;-68
2021/09/03 03:40:57;;;;;;;5.15;2.60;;;16.40;64.50;;;;;;2341381;53;21369;-69
2021/09/03 03:43:24;;;;;;;4.75;2.70;;;16.40;64.50;;;;;;2508086;52;21537;-68
2021/09/03 03:45:51;;;;;;;4.90;3.15;;;16.30;64.40;;;;;;2346655;53;20957;-68
2021/09/03 03:48:17;;;;;;;4.75;2.83;;;16.30;64.40;;;;;;2430945;52;20942;-68
2021/09/03 03:50:43;;;;;;;4.68;2.70;;;16.30;64.50;;;;;;2348030;52;20977;-69
2021/09/03 03:53:11;;;;;;;5.30;3.03;;;16.30;64.60;;;;;;2430325;52;21088;-70
2021/09/03 03:55:38;;;;;;;6.40;2.55;;;16.20;64.60;;;;;;2331364;53;20979;-68
2021/09/03 03:58:04;;;;;;;4.22;2.55;;;16.20;64.70;;;;;;2595430;52;20967;-70
2021/09/03 04:00:31;;;;;;;4.00;2.53;;;16.20;64.70;;;;;;2367231;52;20957;-69
2021/09/03 04:02:58;;;;;;;5.70;2.80;;;16.20;64.80;;;;;;2342908;53;20969;-71
2021/09/03 04:05:24;;;;;;;4.57;2.72;;;16.10;64.70;;;;;;2337351;52;20973;-72
2021/09/03 04:07:51;;;;;;;5.25;2.95;;;16.10;64.70;;;;;;2346709;53;21073;-71
2021/09/03 04:10:18;;;;;;;5.00;2.92;;;16.10;64.80;;;;;;2350758;53;20947;-71
2021/09/03 04:12:45;;;;;;;5.65;2.70;;;16.10;64.80;;;;;;2360490;52;20950;-70
2021/09/03 04:15:11;;;;;;;4.87;2.78;;;16.00;64.80;;;;;;2346888;53;20929;-70
2021/09/03 04:17:38;;;;;;;5.15;2.97;;;16.00;64.90;;;;;;2457626;52;20993;-69
2021/09/03 04:20:07;;;;;;;4.45;2.67;;;16.00;65.00;;;;;;2440059;52;21010;-67
2021/09/03 04:22:34;;;;;;;4.78;2.78;;;16.00;65.00;;;;;;2346619;53;21009;-69
2021/09/03 04:25:00;;;;;;;4.32;2.55;;;16.00;65.00;;;;;;2353241;52;20979;-67
2021/09/03 04:27:27;;;;;;;4.32;2.83;;;16.00;65.10;;;;;;2331863;53;21080;-70
2021/09/03 04:29:53;;;;;;;5.95;3.10;;;15.90;64.90;;;;;;2563212;52;21548;-68
2021/09/03 04:32:20;;;;;;;5.68;2.70;;;15.90;64.90;;;;;;2595561;52;20925;-68
2021/09/03 04:34:46;;;;;;;5.07;2.80;;;15.90;64.90;;;;;;2351130;53;20978;-70
2021/09/03 04:37:13;;;;;;;5.95;3.15;;;15.90;64.90;;;;;;2584654;52;20957;-70
2021/09/03 04:39:39;;;;;;;4.70;2.70;;;15.90;65.00;;;;;;2345626;52;20953;-71
2021/09/03 04:42:06;;;;;;;5.30;2.87;;;15.80;65.00;;;;;;2350657;53;22044;-70
2021/09/03 04:44:32;;;;;;;4.28;2.75;;;15.80;65.00;;;;;;2346989;53;22231;-69
2021/09/03 04:46:58;;;;;;;5.43;3.33;;;15.80;65.10;;;;;;2597073;52;21953;-67
2021/09/03 04:49:25;;;;;;;4.53;2.90;;;15.80;65.10;;;;;;2347118;53;20961;-70
2021/09/03 04:51:52;;;;;;;4.60;2.60;;;15.80;65.20;;;;;;2562847;52;21979;-72
2021/09/03 04:54:18;;;;;;;4.93;3.15;;;15.80;65.20;;;;;;2347314;53;21489;-69
2021/09/03 04:56:45;;;;;;;5.35;3.05;;;15.70;65.10;;;;;;2400730;52;21048;-71
2021/09/03 04:59:11;;;;;;;5.22;3.45;;;15.70;65.10;;;;;;2346562;53;21065;-69
2021/09/03 05:01:38;;;;;;;5.35;3.37;;;15.70;65.10;;;;;;2361117;52;21624;-71
2021/09/03 05:04:04;;;;;;;7.00;3.08;;;15.70;65.20;;;;;;2347036;53;21098;-67
2021/09/03 05:06:31;;;;;;;6.93;3.62;;;15.70;65.30;;;;;;2346602;53;21087;-70
2021/09/03 05:08:57;;;;;;;4.97;3.03;;;15.70;65.40;;;;;;2346568;53;21119;-68
2021/09/03 05:11:24;;;;;;;5.55;3.28;;;15.60;65.20;;;;;;2346643;53;21064;-73
2021/09/03 05:13:50;;;;;;;4.65;2.87;;;15.70;65.40;;;;;;2347038;53;21032;-69
2021/09/03 05:16:17;;;;;;;5.60;3.33;;;15.60;65.40;;;;;;2355933;52;20942;-72
2021/09/03 05:18:43;;;;;;;5.60;3.25;;;15.60;66.10;;;;;;2335356;53;21085;-68
2021/09/03 05:21:10;;;;;;;5.78;3.45;;;15.60;65.40;;;;;;2346237;53;21037;-70
2021/09/03 05:23:36;;;;;;;6.95;3.87;;;15.50;65.40;;;;;;2346802;53;20921;-72
2021/09/03 05:26:03;;;;;;;5.25;3.10;;;15.60;65.50;;;;;;2530942;52;20979;-72
2021/09/03 05:28:31;;;;;;;5.57;3.45;;;15.60;65.60;;;;;;2346684;53;21112;-67
2021/09/03 05:30:58;;;;;;;6.57;3.95;;;15.60;65.70;;;;;;2350989;53;21605;-70
2021/09/03 05:33:24;;;;;;;5.47;3.53;;;15.60;65.80;;;;;;2334548;53;20980;-73
2021/09/03 05:35:51;;;;;;;5.82;3.37;;;15.60;65.90;;;;;;2562428;52;21010;-68
2021/09/03 05:38:17;;;;;;;5.65;3.12;;;15.60;65.90;;;;;;2431828;52;20938;-68
2021/09/03 05:40:43;;;;;;;6.32;3.75;;;15.60;66.00;;;;;;2347030;53;21001;-71
2021/09/03 05:43:11;;;;;;;6.45;3.47;;;15.60;66.00;;;;;;2351195;53;21520;-68
2021/09/03 05:45:38;;;;;;;5.53;3.45;;;15.60;66.00;;;;;;2347255;53;21096;-71
2021/09/03 05:48:06;;;;;;;5.72;3.20;;;15.60;66.00;;;;;;2347058;53;21089;-71
2021/09/03 05:50:32;;;;;;;5.87;3.53;;;15.60;66.20;;;;;;2436677;52;21505;-67
2021/09/03 05:52:59;;;;;;;4.90;3.12;;;15.60;66.20;;;;;;2353919;53;22175;-68
2021/09/03 05:55:25;;;;;;;7.93;3.40;;;15.60;66.30;;;;;;2362684;53;20993;-69
2021/09/03 05:57:54;;;;;;;4.28;2.60;;;15.70;66.50;;;;;;2351271;52;20946;-67
2021/09/03 06:00:20;;;;;;;5.30;3.15;;;15.70;66.60;;;;;;2455442;52;21029;-69
2021/09/03 06:02:47;;;;;;;5.85;3.00;;;15.70;66.60;;;;;;2346791;53;21687;-73
2021/09/03 06:05:14;;;;;;;5.32;3.35;;;15.70;66.70;;;;;;2521325;52;21133;-69
2021/09/03 06:07:43;;;;;;;4.78;3.03;;;15.80;66.80;;;;;;2346962;53;20997;-70
2021/09/03 06:10:10;;;;;;;5.37;3.08;;;15.80;67.00;;;;;;2596220;52;21959;-69
2021/09/03 06:12:36;;;;;;;4.68;2.80;;;15.80;67.10;;;;;;2351116;52;20931;-70
2021/09/03 06:15:06;;;;;;;4.25;2.50;;;15.80;67.20;;;;;;2351363;52;20958;-69
2021/09/03 06:17:33;;;;;;;8.00;4.43;;;15.90;67.30;;;;;;2346139;53;20974;-69
2021/09/03 06:19:59;;;;;;;4.80;3.00;;;15.90;67.50;;;;;;2351678;52;21412;-71
2021/09/03 06:22:26;;;;;;;6.75;3.55;;;16.00;67.70;;;;;;2334999;53;20933;-71
2021/09/03 06:24:53;;;;;;;6.12;3.78;;;16.00;67.80;;;;;;2524646;52;20922;-69
2021/09/03 06:27:20;;;;;;;6.62;4.00;;;16.20;68.20;;;;;;2351457;52;20962;-69
2021/09/03 06:29:47;;;;;;;7.05;4.00;;;16.20;68.20;;;;;;2347115;53;22218;-70
2021/09/03 06:32:15;;;;;;;9.40;4.55;;;16.20;68.20;;;;;;2346877;53;20953;-70
2021/09/03 06:34:43;;;;;;;6.82;3.90;;;16.30;68.40;;;;;;2534419;52;21025;-68
2021/09/03 06:37:09;;;;;;;6.97;4.37;;;16.40;68.70;;;;;;2346796;52;22098;-67
2021/09/03 06:39:36;;;;;;;6.68;4.68;;;16.50;68.80;;;;;;2596517;52;22027;-68
2021/09/03 06:42:05;;;;;;;7.80;4.87;;;16.60;69.00;;;;;;2347730;53;21374;-68
2021/09/03 06:44:32;;;;;;;7.43;4.72;;;16.60;69.10;;;;;;2596741;52;21049;-70
2021/09/03 06:46:59;;;;;;;6.82;4.18;;;16.80;69.60;;;;;;2347241;53;20973;-68
2021/09/03 06:49:25;;;;;;;6.80;4.57;;;16.90;69.90;;;;;;2398836;52;20965;-68
2021/09/03 06:51:52;;;;;;;7.57;4.22;;;16.90;69.90;;;;;;2595736;52;20935;-68
2021/09/03 06:54:19;;;;;;;6.43;4.43;;;17.10;70.10;;;;;;2349890;52;21018;-68
2021/09/03 06:56:45;;;;;;;7.50;3.95;;;17.20;70.20;;;;;;2346570;52;20950;-67
2021/09/03 06:59:12;;;;;;;7.57;4.78;;;17.30;70.30;;;;;;2595303;52;20977;-69
2021/09/03 07:01:38;;;;;;;7.25;3.92;;;17.40;70.40;;;;;;2347245;53;21009;-72
2021/09/03 07:04:05;;;;;;;7.15;4.35;;;17.50;70.50;;;;;;2350258;52;21367;-71
2021/09/03 07:06:32;;;;;;;7.25;4.60;;;17.70;70.70;;;;;;2347296;53;21534;-69
2021/09/03 07:08:59;;;;;;;6.37;4.20;;;17.80;70.90;;;;;;2415580;52;20922;-69
2021/09/03 07:11:25;;;;;;;6.30;3.65;;;18.00;71.20;;;;;;2341425;53;21476;-71
2021/09/03 07:13:52;;;;;;;5.93;4.12;;;18.10;71.30;;;;;;2360749;52;21664;-69
2021/09/03 07:16:18;;;;;;;7.22;4.12;;;18.30;71.50;;;;;;2340457;52;22078;-71
2021/09/03 07:18:45;;;;;;;6.60;3.62;;;18.40;71.60;;;;;;2592001;52;21314;-70
2021/09/03 07:21:11;;;;;;;5.62;3.70;;;18.60;71.60;;;;;;2346392;53;20981;-72
2021/09/03 07:23:38;;;;;;;5.60;4.20;;;18.80;71.60;;;;;;2550345;52;20990;-71
2021/09/03 07:26:04;;;;;;;6.03;4.32;;;18.90;71.40;;;;;;2340885;53;21160;-70
2021/09/03 07:28:30;;;;;;;5.70;3.85;;;19.10;71.20;;;;;;2406290;52;21486;-69
2021/09/03 07:30:57;;;;;;;6.30;4.07;;;19.20;71.50;;;;;;2350620;53;20977;-72
2021/09/03 07:33:23;;;;;;;7.22;4.10;;;19.40;70.80;;;;;;2595263;52;20942;-72
2021/09/03 07:35:50;;;;;;;6.50;3.95;;;19.40;70.50;;;;;;2462285;52;21382;-70
2021/09/03 07:38:16;;;;;;;6.50;3.83;;;19.60;70.30;;;;;;2483644;52;20965;-71
2021/09/03 07:40:43;;;;;;;5.37;3.03;;;19.70;70.20;;;;;;2482728;52;21083;-71
2021/09/03 07:43:09;;;;;;;9.02;3.78;;;19.80;70.10;;;;;;2347104;53;20938;-71
2021/09/03 07:45:37;;;;;;;5.30;2.97;;;19.90;69.90;;;;;;2346586;53;21152;-71
2021/09/03 07:48:05;;;;;;;6.22;3.65;;;20.00;69.80;;;;;;2346830;53;21548;-70
2021/09/03 07:50:32;;;;;;;5.68;3.45;;;20.10;69.80;;;;;;2350740;53;21362;-72
2021/09/03 07:53:11;;;;;;;6.93;3.87;;;20.20;69.80;;;;;;2351218;52;21015;-72
2021/09/03 07:55:37;;;;;;;6.97;4.50;;;20.30;69.10;;;;;;2351690;53;20934;-68
2021/09/03 07:58:04;;;;;;;5.57;3.60;;;20.40;69.40;;;;;;2339583;53;21084;-72
2021/09/03 08:00:31;;;;;;;5.75;3.60;;;20.50;69.30;;;;;;2347048;52;20950;-73
2021/09/03 08:02:58;;;;;;;5.93;3.60;;;20.60;69.40;;;;;;2350704;52;20940;-72
2021/09/03 08:05:24;;;;;;;5.75;3.92;;;20.60;69.30;;;;;;2373257;52;21029;-70
2021/09/03 08:07:50;;;;;;;5.43;3.20;;;20.70;69.20;;;;;;2334561;53;20935;-69
2021/09/03 08:10:17;;;;;;;6.35;4.10;;;20.80;69.10;;;;;;2333839;53;21004;-74
2021/09/03 08:12:43;;;;;;;5.53;3.80;;;20.90;69.00;;;;;;2345311;52;21058;-70
2021/09/03 08:15:11;;;;;;;5.87;3.80;;;21.00;68.70;;;;;;2335731;53;21064;-69
2021/09/03 08:17:37;;;;;;;6.93;4.35;;;21.00;68.50;;;;;;2344032;52;22071;-69
2021/09/03 08:20:05;;;;;;;6.22;3.85;;;21.10;68.50;;;;;;2346180;52;20993;-69
2021/09/03 08:22:31;;;;;;;6.07;4.00;;;21.20;68.50;;;;;;2346550;53;20998;-72
2021/09/03 08:24:57;;;;;;;6.18;3.83;;;21.30;68.50;;;;;;2352887;52;20954;-70
2021/09/03 08:27:24;;;;;;;4.55;3.20;;;21.40;68.60;;;;;;2345387;53;21619;-71
2021/09/03 08:29:50;;;;;;;7.87;3.90;;;21.50;68.50;;;;;;2346583;52;20945;-71
2021/09/03 08:32:16;;;;;;;6.50;3.47;;;21.50;68.30;;;;;;2347949;52;20989;-71
2021/09/03 08:34:43;;;;;;;6.07;3.92;;;21.60;68.30;;;;;;2349953;52;21070;-70
2021/09/03 08:37:09;;;;;;;6.80;3.85;;;21.70;68.40;;;;;;2437722;52;20992;-74
2021/09/03 08:39:35;;;;;;;7.05;4.20;;;21.70;68.30;;;;;;2349537;53;20980;-72
2021/09/03 08:42:02;;;;;;;7.80;4.07;;;21.80;68.10;;;;;;2345045;53;20973;-71
2021/09/03 08:44:30;;;;;;;6.07;4.10;;;21.90;68.00;;;;;;2355356;52;20986;-70
2021/09/03 08:46:56;;;;;;;6.20;4.12;;;22.00;67.80;;;;;;2344048;53;20956;-72
2021/09/03 08:49:23;;;;;;;4.82;3.17;;;22.10;67.80;;;;;;2340354;52;21404;-72
2021/09/03 08:51:49;;;;;;;5.82;3.45;;;22.10;67.50;;;;;;2345081;53;21353;-71
2021/09/03 08:54:16;;;;;;;6.20;3.37;;;22.20;67.40;;;;;;2564133;52;20969;-70
2021/09/03 08:56:42;;;;;;;5.43;3.60;;;22.20;67.40;;;;;;2352786;52;20939;-71
2021/09/03 08:59:08;;;;;;;5.95;3.67;;;22.30;67.50;;;;;;2348276;53;20943;-71
2021/09/03 09:01:34;;;;;;;4.40;2.92;;;22.40;67.70;;;;;;2348236;53;20982;-70
2021/09/03 09:04:13;;;;;;;5.85;3.05;;;22.50;67.90;;;;;;2351701;52;21113;-69
2021/09/03 09:06:42;;;;;;;4.68;3.10;;;22.60;67.70;;;;;;2333004;53;21036;-72
2021/09/03 09:09:08;;;;;;;6.78;3.60;;;22.70;68.00;;;;;;2346742;52;21027;-68
2021/09/03 09:11:46;;;;;;;5.47;3.60;;;22.80;67.50;;;;;;2346816;53;20929;-72
2021/09/03 09:14:13;;;;;;;5.37;3.42;;;22.90;66.50;;;;;;2412468;52;22343;-69
2021/09/03 09:16:40;;;;;;;9.52;3.87;;;23.00;67.30;;;;;;2335898;53;21479;-70
2021/09/03 09:19:07;;;;;;;5.65;3.10;;;23.10;67.20;;;;;;2350585;52;21220;-74
2021/09/03 09:21:48;;;;;;;5.22;3.00;;;23.20;67.10;;;;;;2346997;52;21420;-69
2021/09/03 09:24:14;;;;;;;5.78;3.28;;;23.30;66.30;;;;;;2356813;53;21034;-72
2021/09/03 09:26:55;;;;;;;7.47;3.30;;;23.30;66.80;;;;;;2328048;53;20950;-73
2021/09/03 09:29:29;;;;;;;5.00;3.05;;;23.40;65.90;;;;;;2350636;52;21027;-70
2021/09/03 09:31:57;;;;;;;8.02;2.80;;;23.50;66.30;;;;;;2345935;53;21041;-72
2021/09/03 09:34:24;;;;;;;6.03;2.72;;;23.50;66.50;;;;;;2344534;53;20977;-72
2021/09/03 09:36:53;;;;;;;5.10;3.37;;;23.60;66.50;;;;;;2341181;53;20942;-71
2021/09/03 09:39:23;;;;;;;5.28;3.10;;;23.60;66.40;;;;;;2525215;52;21029;-71
2021/09/03 09:42:30;;;;;;;4.90;3.30;;;23.70;66.00;;;;;;2358583;52;21081;-71
2021/09/03 09:45:09;;;;;;;4.18;2.70;;;23.80;64.80;;;;;;2339441;53;20969;-72
2021/09/03 09:47:37;;;;;;;5.82;3.30;;;23.90;65.70;;;;;;2350118;52;20993;-72
2021/09/03 09:50:28;;;;;;;4.90;2.90;;;24.00;66.20;;;;;;2353204;53;21046;-69
2021/09/03 09:53:09;;;;;;;4.60;2.45;;;24.00;65.00;;;;;;2350884;52;20973;-72
2021/09/03 09:55:39;;;;;;;6.22;2.72;;;24.10;66.00;;;;;;2349309;53;20941;-68
2021/09/03 09:58:06;;;;;;;5.75;3.25;;;24.20;66.20;;;;;;2330370;53;20974;-69
2021/09/03 10:00:35;;;;;;;4.90;3.28;;;24.30;66.20;;;;;;2332285;53;20969;-72
2021/09/03 10:03:01;;;;;;;5.40;3.25;;;24.40;66.30;;;;;;2349715;52;20982;-69
2021/09/03 10:05:29;;;;;;;5.12;3.40;;;24.50;66.40;;;;;;2344329;53;21572;-69
2021/09/03 10:07:55;;;;;;;5.43;3.25;;;24.60;66.10;;;;;;2339299;53;21044;-73
2021/09/03 10:10:22;;;;;;;4.47;3.17;;;24.80;66.10;;;;;;2349432;52;20954;-73
2021/09/03 10:12:48;;;;;;;5.12;3.10;;;24.90;65.90;;;;;;2345485;53;20941;-73
2021/09/03 10:15:16;;;;;;;5.12;3.05;;;25.00;65.90;;;;;;2345130;53;21024;-70
2021/09/03 10:17:42;;;;;;;5.90;3.25;;;25.00;65.70;;;;;;2595199;52;20989;-73
2021/09/03 10:20:09;;;;;;;5.62;3.25;;;25.00;65.30;;;;;;2328295;53;21062;-72
2021/09/03 10:22:42;;;;;;;6.03;3.03;;;25.20;65.20;;;;;;2350754;52;21011;-70
2021/09/03 10:25:09;;;;;;;4.65;2.72;;;25.30;64.60;;;;;;2379920;52;20993;-71
2021/09/03 10:27:36;;;;;;;5.20;3.03;;;25.30;64.90;;;;;;2514080;52;20971;-72
2021/09/03 10:30:17;;;;;;;4.12;2.55;;;25.40;64.80;;;;;;2346222;52;20934;-71
2021/09/03 10:32:43;;;;;;;4.93;2.97;;;25.50;64.10;;;;;;2327767;53;20930;-71
2021/09/03 10:35:34;;;;;;;4.53;2.85;;;25.50;64.40;;;;;;2345607;53;20957;-75
2021/09/03 10:38:00;;;;;;;4.90;2.70;;;25.60;62.70;;;;;;2348520;53;21006;-70
2021/09/03 10:40:39;;;;;;;4.95;2.80;;;25.60;64.10;;;;;;2345600;53;20977;-72
2021/09/03 10:43:06;;;;;;;3.97;2.55;;;25.70;62.90;;;;;;2347983;53;21066;-71
2021/09/03 10:45:40;;;;;;;4.53;2.97;;;25.70;64.00;;;;;;2347873;53;21080;-71
2021/09/03 10:48:10;;;;;;;6.12;3.70;;;25.70;63.10;;;;;;2347598;52;20961;-74
2021/09/03 10:51:37;;;;;;;5.10;3.53;;;25.70;63.60;;;;;;2352420;53;21134;-71
2021/09/03 10:54:18;;;;;;;4.95;2.83;;;25.80;62.40;;;;;;2356411;53;20974;-73
2021/09/03 10:56:58;;;;;;;5.10;2.70;;;25.90;62.30;;;;;;2362343;52;20996;-72
2021/09/03 10:59:24;;;;;;;6.80;3.08;;;25.90;62.20;;;;;;2403394;52;20974;-72
2021/09/03 11:01:52;;;;;;;5.62;2.97;;;26.00;63.30;;;;;;2335158;53;20937;-73
2021/09/03 11:04:19;;;;;;;4.57;2.80;;;26.00;63.00;;;;;;2452775;52;21947;-71
2021/09/03 11:06:55;;;;;;;4.60;2.90;;;26.00;63.10;;;;;;2334822;53;20943;-73
2021/09/03 11:09:28;;;;;;;4.40;2.85;;;26.10;62.50;;;;;;2343207;53;20967;-70
2021/09/03 11:11:58;;;;;;;5.00;3.05;;;26.20;62.30;;;;;;2348543;52;20949;-74
2021/09/03 11:14:28;;;;;;;4.10;2.55;;;26.20;62.90;;;;;;2424874;52;20957;-73
2021/09/03 11:17:00;;;;;;;6.22;2.80;;;26.30;62.40;;;;;;2348690;52;20945;-72
2021/09/03 11:19:34;;;;;;;3.87;2.50;;;26.30;62.50;;;;;;2346233;52;21994;-72
2021/09/03 11:22:08;;;;;;;3.47;2.17;;;26.40;61.90;;;;;;2564650;52;21300;-70
2021/09/03 11:24:43;;;;;;;5.53;2.80;;;26.50;62.20;;;;;;2311547;52;2662275;-70
2021/09/03 11:27:11;;;;;;;5.45;2.67;;;26.50;62.10;;;;;;2468597;52;21478;-74
2021/09/03 11:29:45;;;;;;;4.95;2.47;;;26.60;62.20;;;;;;2355773;52;21114;-73
2021/09/03 11:32:13;;;;;;;3.62;2.42;;;26.70;61.30;;;;;;2345573;52;20942;-73
2021/09/03 11:34:50;;;;;;;4.65;2.62;;;26.70;61.90;;;;;;2346506;52;22157;-69
2021/09/03 11:40:48;;;;;;;4.30;2.72;;;26.80;61.80;;;;;;2352010;53;20962;-71
2021/09/03 11:43:19;;;;;;;3.50;2.00;;;26.90;61.00;;;;;;2425974;52;21009;-70
2021/09/03 11:45:45;;;;;;;4.05;2.60;;;27.00;61.40;;;;;;2354081;52;20945;-71
2021/09/03 11:48:14;;;;;;;4.40;2.53;;;27.10;61.90;;;;;;2352749;53;22040;-75
2021/09/03 11:50:48;;;;;;;4.10;2.35;;;27.10;61.20;;;;;;2348451;53;20989;-72
2021/09/03 11:53:34;;;;;;;4.60;2.75;;;27.20;60.30;;;;;;2346914;53;21363;-70
2021/09/03 11:56:00;;;;;;;4.78;2.67;;;27.20;59.60;;;;;;2394857;52;22105;-72
2021/09/03 11:58:26;;;;;;;4.35;2.67;;;27.20;60.80;;;;;;2352261;53;21054;-72
2021/09/03 12:00:55;;;;;;;4.30;2.45;;;27.30;60.60;;;;;;2350024;53;20950;-72
2021/09/03 12:03:37;;;;;;;3.62;2.35;;;27.30;60.50;;;;;;2352549;53;20958;-71
2021/09/03 12:06:04;;;;;;;;;;;27.40;59.70;;;;;;2358738;53;20967;-73
2021/09/03 12:08:35;;;;;;;5.37;2.30;;;27.40;59.70;;;;;;2330266;53;20351;-71
2021/09/03 12:11:06;;;;;;;4.50;2.80;;;27.50;60.90;;;;;;2569944;52;21614;-72
2021/09/03 12:14:14;;;;;;;5.10;2.53;;;27.50;59.80;;;;;;2328924;53;20972;-71
2021/09/03 12:16:43;;;;;;;4.10;2.55;;;27.60;58.80;;;;;;2383067;52;20957;-75
2021/09/03 12:19:30;;;;;;;4.28;2.50;;;27.60;60.50;;;;;;2350430;52;20969;-71
2021/09/03 12:21:57;;;;;;;4.47;2.60;;;27.70;60.30;;;;;;2359903;52;20958;-75
2021/09/03 12:24:23;;;;;;;4.50;3.10;;;27.80;60.00;;;;;;2346861;53;21087;-71
2021/09/03 12:26:52;;;;;;;5.53;2.65;;;27.80;60.60;;;;;;2339570;53;21001;-75
2021/09/03 12:29:28;;;;;;;4.07;2.45;;;27.80;59.60;;;;;;2357725;52;21034;-73
2021/09/03 12:32:05;;;;;;;4.78;2.87;;;27.90;59.70;;;;;;2378825;52;20958;-71
2021/09/03 12:34:34;;;;;;;4.03;2.40;;;27.90;59.70;;;;;;2348684;53;21029;-73
2021/09/03 12:37:05;;;;;;;4.53;2.72;;;28.00;59.80;;;;;;2595953;52;20935;-73
2021/09/03 12:39:32;;;;;;;4.17;2.30;;;28.10;59.10;;;;;;2349296;53;21909;-69
2021/09/03 12:42:03;;;;;;;4.55;2.70;;;28.20;59.40;;;;;;2372198;52;22486;-73
2021/09/03 12:44:30;;;;;;;5.57;2.87;;;28.10;58.80;;;;;;2354181;52;20982;-70
2021/09/03 12:47:01;;;;;;;3.62;2.40;;;28.20;58.70;;;;;;2335293;53;20937;-72
2021/09/03 12:49:34;;;;;;;4.07;2.35;;;28.20;58.00;;;;;;2352110;53;20942;-73
2021/09/03 12:52:15;;;;;;;4.03;2.20;;;28.30;58.60;;;;;;2352189;52;20942;-74
2021/09/03 12:54:41;;;;;;;3.42;2.10;;;28.40;57.70;;;;;;2352785;52;20953;-72
2021/09/03 12:57:09;;;;;;;4.45;2.80;;;28.50;58.80;;;;;;2333028;53;21022;-70